Data for 06/05/2006

Time Sea-Level Adjusted Pressure Absolute Pressure Temperature Relative Humidity Dew Point   
(mb) (inHg) (mb) (inHg) (C) (F) (%) (C) (F)
00:05 1017 30.03 846 24.98 12.3 54.1 85 9.9 49.8
00:10 1017 30.03 846 24.98 12.2 54 84 9.6 49.3
00:15 1017 30.03 846 24.98 12.3 54.1 83 9.6 49.2
00:20 1017 30.03 847 25.01 12.4 54.2 82 9.5 49
00:25 1017 30.03 847 25.01 12.5 54.5 82 9.5 49.2
00:30 1017 30.03 847 25.01 12.5 54.4 80 9.1 48.5
00:35 1017 30.03 847 25.01 12.5 54.6 81 9.4 48.9
00:40 1017 30.03 847 25.01 12.6 54.6 79 9.1 48.4
00:45 1017 30.03 847 25.01 12.8 55.1 79 9.3 48.7
00:50 1017 30.03 847 25.01 13 55.3 78 9.2 48.6
00:55 1017 30.03 847 25.01 13 55.5 77 9.2 48.5
01:00 1018 30.06 847 25.01 13.1 55.6 77 9.2 48.5
01:05 1018 30.06 847 25.01 13.2 55.7 76 9 48.3
01:10 1018 30.06 847 25.01 13.3 55.9 76 9.1 48.4
01:15 1018 30.06 847 25.01 13.4 56 74 8.8 47.9
01:20 1018 30.06 847 25.01 13.5 56.3 74 8.9 48.1
01:25 1018 30.06 847 25.01 13.6 56.4 73 8.9 48
01:30 1018 30.06 847 25.01 13.5 56.2 73 8.8 47.9
01:35 1018 30.06 847 25.01 13.4 56.2 75 9.1 48.4
01:40 1018 30.06 847 25.01 13.2 55.8 77 9.3 48.7
01:45 1018 30.06 847 25.01 13.1 55.6 77 9.2 48.5
01:50 1018 30.06 847 25.01 13.2 55.7 76 9.1 48.3
01:55 1018 30.06 847 25.01 13.3 55.9 76 9.2 48.5
02:00 1018 30.06 847 25.01 13.1 55.6 77 9.2 48.6
02:05 1018 30.06 847 25.01 12.9 55.2 79 9.3 48.8
02:10 1018 30.06 847 25.01 12.9 55.1 80 9.5 49.1
02:15 1018 30.06 847 25.01 12.8 55.1 81 9.7 49.5
02:20 1018 30.06 847 25.01 12.7 54.9 81 9.6 49.3
02:25 1018 30.06 847 25.01 12.6 54.6 84 9.9 49.8
02:30 1018 30.06 847 25.01 12.4 54.3 85 10 49.9
02:35 1018 30.06 847 25.01 12.3 54.1 86 10 50
02:40 1018 30.06 847 25.01 12.2 54 86 10 50
02:45 1018 30.06 847 25.01 12.1 53.9 87 10 50
02:50 1018 30.06 847 25.01 12.1 53.7 87 9.9 49.8
02:55 1018 30.06 847 25.01 12.1 53.7 87 10 50.1
03:00 1018 30.06 847 25.01 12.1 53.7 88 10.1 50.3
03:05 1018 30.06 847 25.01 11.9 53.5 89 10.1 50.3
03:10 1018 30.06 847 25.01 11.9 53.3 89 10.1 50.1
03:15 1018 30.06 847 25.01 11.8 53.2 89 10 50
03:20 1018 30.06 847 25.01 11.6 52.9 89 9.9 49.9
03:25 1018 30.06 848 25.04 11.6 52.8 89 9.8 49.7
03:30 1018 30.06 848 25.04 11.5 52.7 88 9.7 49.4
03:35 1018 30.06 847 25.01 11.6 52.8 87 9.6 49.2
03:40 1018 30.06 847 25.01 11.6 52.8 87 9.5 49.2
03:45 1018 30.06 848 25.04 11.4 52.6 89 9.6 49.4
03:50 1019 30.09 848 25.04 11.3 52.4 88 9.5 49.1
03:55 1019 30.09 848 25.04 11.2 52.2 89 9.4 49
04:00 1019 30.09 848 25.04 11.4 52.4 87 9.2 48.6
04:05 1019 30.09 848 25.04 11.4 52.5 85 8.9 48
04:10 1019 30.09 848 25.04 11.4 52.5 81 8.3 47
04:15 1019 30.09 848 25.04 11.4 52.6 81 8.3 46.9
04:20 1019 30.09 848 25.04 11.5 52.7 81 8.4 47.2
04:25 1019 30.09 848 25.04 11.5 52.7 82 8.5 47.3
04:30 1019 30.09 848 25.04 11.5 52.6 82 8.5 47.3
04:35 1019 30.09 848 25.04 11.5 52.7 83 8.8 47.8
04:40 1019 30.09 848 25.04 11.3 52.3 86 9.1 48.3
04:45 1019 30.09 848 25.04 11 51.8 87 8.9 48
04:50 1019 30.09 848 25.04 10.9 51.7 85 8.5 47.3
04:55 1019 30.09 848 25.04 11 51.8 80 7.8 46
05:00 1019 30.09 848 25.04 11.1 52.1 76 7.1 44.8
05:05 1019 30.09 848 25.04 11.3 52.3 73 6.7 44.1
05:10 1019 30.09 848 25.04 11.3 52.4 73 6.6 43.9
05:15 1019 30.09 848 25.04 11.3 52.3 73 6.7 44.1
05:20 1019 30.09 848 25.04 11.2 52.2 72 6.4 43.4
05:25 1019 30.09 848 25.04 11.2 52.1 71 6.2 43.2
05:30 1019 30.09 848 25.04 11.2 52.1 71 6 42.9
05:35 1019 30.09 848 25.04 11.2 52.2 69 5.7 42.3
05:40 1019 30.09 848 25.04 11.4 52.4 67 5.6 42
05:45 1019 30.09 848 25.04 11.4 52.6 66 5.3 41.5
05:50 1019 30.09 849 25.07 11.6 52.8 65 5.3 41.6
05:55 1019 30.09 849 25.07 11.7 53 63 5 41
06:00 1020 30.12 849 25.07 12 53.6 61 4.8 40.7
06:05 1020 30.12 849 25.07 12.3 54.1 61 4.9 40.9
06:10 1020 30.12 849 25.07 12.4 54.3 62 5.3 41.5
06:15 1020 30.12 849 25.07 12.2 53.9 63 5.4 41.7
06:20 1020 30.12 849 25.07 11.9 53.4 63 5.2 41.3
06:25 1020 30.12 849 25.07 11.8 53.3 65 5.4 41.7
06:30 1020 30.12 849 25.07 11.7 53.1 65 5.3 41.6
06:35 1020 30.12 849 25.07 11.6 53 64 5.2 41.4
06:40 1020 30.12 849 25.07 11.6 52.9 65 5.3 41.6
06:45 1020 30.12 849 25.07 11.7 53 63 4.9 40.8
06:50 1020 30.12 849 25.07 12 53.6 63 5.3 41.6
06:55 1020 30.12 849 25.07 12 53.5 64 5.4 41.8
07:00 1020 30.12 849 25.07 11.9 53.5 62 5 41.1
07:05 1020 30.12 849 25.07 11.9 53.4 63 5.1 41.3
07:10 1020 30.12 849 25.07 12 53.6 61 4.7 40.4
07:15 1020 30.12 849 25.07 12.1 53.7 61 4.9 40.8
07:20 1020 30.12 849 25.07 11.9 53.4 60 4.5 40.1
07:25 1020 30.12 849 25.07 11.9 53.3 63 5.2 41.3
07:30 1020 30.12 849 25.07 11.7 53.1 64 5.3 41.5
07:35 1020 30.12 849 25.07 11.8 53.3 64 5.2 41.4
07:40 1020 30.12 849 25.07 11.9 53.4 62 5 40.9
07:45 1020 30.12 849 25.07 11.8 53.2 61 4.6 40.3
07:50 1020 30.12 849 25.07 12.1 53.8 61 4.9 40.8
07:55 1020 30.12 849 25.07 12.2 54 60 4.7 40.5
08:00 1020 30.12 849 25.07 12.3 54.2 60 4.9 40.9
08:05 1020 30.12 849 25.07 12.3 54.1 60 4.8 40.6
08:10 1020 30.12 849 25.07 12.7 54.8 56 4.1 39.5
08:15 1020 30.12 849 25.07 12.7 54.8 57 4.4 39.9
08:20 1020 30.12 850 25.1 12.7 54.8 57 4.3 39.8
08:25 1020 30.12 850 25.1 12.5 54.6 56 3.9 39.1
08:30 1020 30.12 850 25.1 12.8 55.1 55 4 39.2
08:35 1020 30.12 850 25.1 13.6 56.5 52 4.1 39.4
08:40 1020 30.12 850 25.1 13.2 55.7 54 4 39.2
08:45 1020 30.12 850 25.1 13.1 55.5 53 3.8 38.8
08:50 1020 30.12 850 25.1 13.4 56.1 52 3.9 39
08:55 1020 30.12 850 25.1 13.7 56.7 48 2.9 37.2
09:00 1021 30.15 850 25.1 14.2 57.6 46 2.7 36.9
09:05 1021 30.15 850 25.1 14.8 58.6 46 3.3 37.9
09:10 1021 30.15 850 25.1 15 59 48 4.1 39.4
09:15 1021 30.15 850 25.1 14.6 58.3 48 3.7 38.6
09:20 1021 30.15 850 25.1 14.5 58.1 48 3.8 38.8
09:25 1021 30.15 850 25.1 14.8 58.6 48 3.9 39.1
09:30 1021 30.15 850 25.1 15.1 59.3 46 3.7 38.7
09:35 1021 30.15 850 25.1 15.1 59.1 46 3.7 38.6
09:40 1021 30.15 850 25.1 15.1 59.2 45 3.5 38.3
09:45 1021 30.15 850 25.1 15.1 59.2 44 2.9 37.3
09:50 1021 30.15 850 25.1 15.1 59.3 46 3.8 38.8
09:55 1021 30.15 850 25.1 15.4 59.7 50 5.1 41.1
10:00 1021 30.15 850 25.1 14.4 57.8 53 4.9 40.7
10:05 1021 30.15 850 25.1 14.4 57.9 53 4.9 40.9
10:10 1021 30.15 850 25.1 14.1 57.4 52 4.5 40.1
10:15 1021 30.15 850 25.1 13.7 56.7 51 3.7 38.7
10:20 1021 30.15 850 25.1 13.7 56.7 51 3.9 39.1
10:25 1021 30.15 850 25.1 14.6 58.3 48 3.9 38.9
10:30 1021 30.15 850 25.1 15.6 60 45 3.9 39
10:35 1021 30.15 850 25.1 15 59.1 48 4.2 39.5
10:40 1021 30.15 850 25.1 13.7 56.6 51 3.8 38.8
10:45 1021 30.15 850 25.1 14.1 57.4 50 4 39.2
10:50 1021 30.15 850 25.1 14.8 58.7 47 3.6 38.5
10:55 1021 30.15 850 25.1 15.1 59.3 47 4 39.1
11:00 1021 30.15 850 25.1 15.7 60.3 44 3.5 38.3
11:05 1021 30.15 850 25.1 16.5 61.7 43 4.1 39.4
11:10 1021 30.15 850 25.1 16.1 61 43 3.8 38.8
11:15 1021 30.15 850 25.1 15.9 60.6 44 3.8 38.9
11:20 1021 30.15 850 25.1 15.7 60.3 47 4.4 40
11:25 1021 30.15 850 25.1 16 60.8 45 4.3 39.8
11:30 1021 30.15 850 25.1 16.3 61.3 45 4.5 40.2
11:35 1020 30.12 850 25.1 16.8 62.3 44 4.5 40.2
11:40 1020 30.12 850 25.1 16.9 62.5 43 4.5 40
11:45 1020 30.12 850 25.1 17.3 63.2 43 4.7 40.5
11:50 1020 30.12 849 25.07 17.8 64 43 5 41
11:55 1020 30.12 850 25.1 18.3 64.9 39 4.3 39.7
12:00 1020 30.12 850 25.1 17.7 63.8 44 5.4 41.7
12:05 1020 30.12 850 25.1 17.1 62.7 44 4.9 40.7
12:10 1020 30.12 850 25.1 16.7 62 44 4.5 40.1
12:15 1020 30.12 850 25.1 17.3 63.2 43 4.6 40.3
12:20 1020 30.12 850 25.1 17.9 64.2 43 5.1 41.3
12:25 1020 30.12 850 25.1 18 64.4 41 4.6 40.4
12:30 1020 30.12 850 25.1 18.2 64.7 42 5.1 41.2
12:35 1020 30.12 850 25.1 18.7 65.6 41 5.3 41.5
12:40 1020 30.12 849 25.07 18.2 64.7 42 5.3 41.5
12:45 1020 30.12 849 25.07 17.9 64.2 43 5.4 41.6
12:50 1020 30.12 849 25.07 17.2 63 45 5.2 41.4
12:55 1020 30.12 849 25.07 18.4 65.1 40 4.7 40.5
13:00 1020 30.12 849 25.07 19.3 66.7 40 5.4 41.7
13:05 1020 30.12 849 25.07 18.6 65.4 44 6.2 43.2
13:10 1020 30.12 849 25.07 18.5 65.4 39 4.3 39.7
13:15 1020 30.12 849 25.07 19.1 66.3 40 5.4 41.7
13:20 1020 30.12 849 25.07 18.1 64.5 42 5.2 41.3
13:25 1020 30.12 849 25.07 18.5 65.3 40 5 40.9
13:30 1020 30.12 849 25.07 19.1 66.3 39 5 41.1
13:35 1020 30.12 849 25.07 19.3 66.8 41 5.9 42.6
13:40 1020 30.12 849 25.07 19.5 67.1 40 5.8 42.4
13:45 1020 30.12 849 25.07 19.6 67.3 38 5.1 41.2
13:50 1020 30.12 849 25.07 19.6 67.2 39 5.4 41.8
13:55 1020 30.12 849 25.07 20.4 68.7 37 5.5 41.9
14:00 1020 30.12 849 25.07 20.4 68.7 37 5.3 41.5
14:05 1019 30.09 849 25.07 20.6 69 36 5.1 41.3
14:10 1019 30.09 849 25.07 19.4 66.9 40 5.6 42.2
14:15 1019 30.09 849 25.07 19.2 66.6 42 6 42.8
14:20 1019 30.09 848 25.04 18.8 65.9 41 5.4 41.8
14:25 1019 30.09 848 25.04 19.3 66.7 42 6.3 43.3
14:30 1019 30.09 848 25.04 19.2 66.5 42 6 42.8
14:35 1019 30.09 848 25.04 19.1 66.5 39 5.1 41.3
14:40 1019 30.09 848 25.04 20.3 68.5 36 5.1 41.2
14:45 1019 30.09 848 25.04 21.3 70.3 35 5.2 41.4
14:50 1019 30.09 848 25.04 22.2 71.9 34 5.6 42
14:55 1019 30.09 848 25.04 21.3 70.4 36 5.9 42.6
15:00 1019 30.09 848 25.04 20.9 69.6 38 6.3 43.3
15:05 1019 30.09 848 25.04 21.2 70.2 37 5.9 42.7
15:10 1019 30.09 848 25.04 20.9 69.5 39 6.7 44.1
15:15 1019 30.09 848 25.04 21 69.9 35 5.3 41.6
15:20 1019 30.09 848 25.04 21.8 71.2 36 6.4 43.5
15:25 1019 30.09 848 25.04 21.8 71.2 35 6 42.8
15:30 1019 30.09 848 25.04 22 71.5 35 5.9 42.7
15:35 1019 30.09 848 25.04 21.8 71.2 35 5.9 42.7
15:40 1019 30.09 848 25.04 22.2 71.9 34 5.8 42.5
15:45 1019 30.09 848 25.04 22.5 72.4 34 5.9 42.7
15:50 1018 30.06 848 25.04 23.1 73.5 33 6.2 43.2
15:55 1018 30.06 848 25.04 23.5 74.3 32 6.1 43
16:00 1018 30.06 847 25.01 22.5 72.5 35 6.6 43.9
16:05 1018 30.06 847 25.01 22.5 72.4 33 5.5 41.9
16:10 1018 30.06 848 25.04 22.6 72.6 33 5.7 42.2
16:15 1018 30.06 847 25.01 22.3 72.1 33 5.6 42
16:20 1018 30.06 847 25.01 21.7 71.1 34 5.3 41.6
16:25 1018 30.06 847 25.01 22.4 72.4 33 5.4 41.7
16:30 1018 30.06 847 25.01 22.8 73.1 33 5.9 42.6
16:35 1018 30.06 847 25.01 22.7 72.8 33 5.7 42.3
16:40 1018 30.06 847 25.01 22.8 73.1 32 5.4 41.7
16:45 1018 30.06 847 25.01 23.3 73.9 32 5.7 42.2
16:50 1018 30.06 847 25.01 23.2 73.7 31 5.5 41.8
16:55 1018 30.06 847 25.01 23.2 73.8 31 5.3 41.5
17:00 1018 30.06 847 25.01 22.6 72.7 32 5.4 41.8
17:05 1018 30.06 847 25.01 22.4 72.3 33 5.5 41.9
17:10 1018 30.06 847 25.01 22.4 72.3 32 5 41.1
17:15 1018 30.06 847 25.01 22.7 72.8 32 5.5 41.8
17:20 1018 30.06 847 25.01 23.2 73.7 31 5.4 41.6
17:25 1018 30.06 847 25.01 23.4 74.1 31 5.3 41.5
17:30 1017 30.03 847 25.01 23.7 74.6 30 5.2 41.4
17:35 1017 30.03 847 25.01 23.8 74.8 30 5.3 41.5
17:40 1017 30.03 847 25.01 23.7 74.7 30 5.3 41.5
17:45 1017 30.03 847 25.01 23.9 75 29 5.2 41.4
17:50 1017 30.03 846 24.98 24.2 75.5 28 5 41
17:55 1017 30.03 846 24.98 23.5 74.4 30 5 41.1
18:00 1017 30.03 846 24.98 23.2 73.8 29 4.3 39.7
18:05 1017 30.03 846 24.98 23.4 74.1 29 4.7 40.4
18:10 1017 30.03 846 24.98 23 73.4 30 4.6 40.3
18:15 1017 30.03 846 24.98 23.2 73.7 30 4.7 40.4
18:20 1017 30.03 846 24.98 23.4 74.1 30 4.8 40.7
18:25 1017 30.03 846 24.98 23.6 74.6 29 4.8 40.7
18:30 1017 30.03 846 24.98 23.5 74.2 30 4.9 40.9
18:35 1017 30.03 846 24.98 23 73.4 30 4.5 40.1
18:40 1017 30.03 846 24.98 23.2 73.7 29 4.3 39.8
18:45 1017 30.03 846 24.98 23.4 74.2 29 4.4 40
18:50 1017 30.03 846 24.98 23.5 74.4 28 4.1 39.4
18:55 1017 30.03 846 24.98 22.9 73.3 29 4.2 39.5
19:00 1017 30.03 846 24.98 22.9 73.1 28 3.8 38.8
19:05 1017 30.03 846 24.98 22.9 73.2 29 4.2 39.5
19:10 1017 30.03 846 24.98 23.1 73.6 28 3.7 38.7
19:15 1017 30.03 846 24.98 23.4 74.2 27 3.8 38.8
19:20 1017 30.03 846 24.98 23.4 74.1 27 3.6 38.5
19:25 1017 30.03 846 24.98 23.1 73.6 29 4.2 39.6
19:30 1017 30.03 846 24.98 22.7 72.9 29 4.1 39.4
19:35 1017 30.03 846 24.98 22.3 72.1 29 3.6 38.4
19:40 1017 30.03 846 24.98 22.1 71.8 30 3.9 39
19:45 1017 30.03 846 24.98 21.8 71.3 35 5.9 42.6
19:50 1017 30.03 846 24.98 21.6 70.9 38 6.7 44.1
19:55 1017 30.03 846 24.98 21.6 70.8 35 5.6 42.1
20:00 1017 30.03 846 24.98 21.5 70.6 35 5.6 42.1
20:05 1017 30.03 846 24.98 21.4 70.6 42 8 46.5
20:10 1017 30.03 846 24.98 21.5 70.6 35 5.6 42
20:15 1017 30.03 846 24.98 21.5 70.7 35 5.4 41.8
20:20 1017 30.03 846 24.98 21.5 70.6 34 5.2 41.3
20:25 1017 30.03 846 24.98 21.4 70.6 35 5.5 41.9
20:30 1017 30.03 846 24.98 21.4 70.6 36 5.7 42.3
20:35 1017 30.03 846 24.98 21.3 70.3 36 5.7 42.2
20:40 1017 30.03 846 24.98 21.1 70 35 5.3 41.5
20:45 1017 30.03 846 24.98 21 69.7 35 5.3 41.5
20:50 1017 30.03 846 24.98 20.8 69.5 38 6.1 42.9
20:55 1017 30.03 846 24.98 20.8 69.4 46 8.9 48
21:00 1017 30.03 846 24.98 20.7 69.2 42 7.4 45.4
21:05 1017 30.03 846 24.98 20.3 68.5 44 7.7 45.8
21:10 1017 30.03 846 24.98 20 67.9 47 8.4 47.1
21:15 1017 30.03 846 24.98 19.5 67.1 48 8.4 47.1
21:20 1017 30.03 846 24.98 19 66.3 54 9.6 49.2
21:25 1017 30.03 846 24.98 18.5 65.3 53 8.9 48
21:30 1017 30.03 846 24.98 18.2 64.7 61 10.5 50.9
21:35 1017 30.03 846 24.98 18 64.5 56 9.1 48.4
21:40 1017 30.03 846 24.98 18.1 64.6 53 8.6 47.4
21:45 1017 30.03 846 24.98 18.1 64.5 54 8.7 47.7
21:50 1017 30.03 847 25.01 17.6 63.7 56 8.8 47.8
21:55 1017 30.03 847 25.01 17.2 63 56 8.4 47.1
22:00 1017 30.03 847 25.01 17.2 62.9 56 8.5 47.2
22:05 1017 30.03 847 25.01 17.2 62.9 55 8.2 46.8
22:10 1018 30.06 847 25.01 17.3 63.1 54 8.1 46.6
22:15 1018 30.06 847 25.01 17.2 63 54 7.9 46.2
22:20 1018 30.06 847 25.01 16.9 62.4 55 7.9 46.2
22:25 1018 30.06 847 25.01 16.7 62.1 55 7.7 45.8
22:30 1018 30.06 847 25.01 16.7 62 52 6.8 44.3
22:35 1018 30.06 847 25.01 16.9 62.3 51 6.7 44.1
22:40 1018 30.06 847 25.01 16.9 62.4 51 6.8 44.2
22:45 1018 30.06 847 25.01 16.8 62.2 50 6.4 43.6
22:50 1018 30.06 847 25.01 16.8 62.2 50 6.5 43.6
22:55 1018 30.06 847 25.01 16.7 62 50 6.2 43.1
23:00 1018 30.06 847 25.01 16.8 62.3 49 6.1 43
23:05 1018 30.06 847 25.01 16.9 62.3 49 6.1 43.1
23:10 1017 30.03 847 25.01 16.8 62.2 48 6 42.7
23:15 1017 30.03 847 25.01 16.7 62.1 49 6 42.8
23:20 1018 30.06 847 25.01 16.6 61.9 49 5.9 42.7
23:25 1018 30.06 847 25.01 16.6 61.8 48 5.8 42.4
23:30 1018 30.06 847 25.01 16.6 62 48 5.7 42.2
23:35 1018 30.06 847 25.01 16.7 62.1 47 5.4 41.8
23:40 1018 30.06 847 25.01 16.7 62.1 47 5.6 42
23:45 1018 30.06 847 25.01 16.6 61.8 48 5.7 42.3
23:50 1018 30.06 847 25.01 16.4 61.5 49 5.7 42.3
23:55 1018 30.06 847 25.01 16.1 61 49 5.6 42
24:00 1018 30.06 847 25.01 16.1 61 49 5.6 42.1